sensor_id;sensor_type;location;lat;lon;timestamp;P1;durP1;ratioP1;P2;durP2;ratioP2
3068;SDS011;1545;51.728;8.796;2024-03-02T00:00:00;27.53;;;16.13;;
3068;SDS011;1545;51.728;8.796;2024-03-02T00:02:34;33.23;;;16.57;;
3068;SDS011;1545;51.728;8.796;2024-03-02T00:05:05;29.67;;;17.07;;
3068;SDS011;1545;51.728;8.796;2024-03-02T00:07:31;28.90;;;16.00;;
3068;SDS011;1545;51.728;8.796;2024-03-02T00:09:57;27.47;;;16.70;;
3068;SDS011;1545;51.728;8.796;2024-03-02T00:12:22;29.63;;;17.63;;
3068;SDS011;1545;51.728;8.796;2024-03-02T00:14:48;28.67;;;17.00;;
3068;SDS011;1545;51.728;8.796;2024-03-02T00:17:17;33.30;;;17.80;;
3068;SDS011;1545;51.728;8.796;2024-03-02T00:19:49;29.27;;;17.33;;
3068;SDS011;1545;51.728;8.796;2024-03-02T00:22:15;28.90;;;17.37;;
3068;SDS011;1545;51.728;8.796;2024-03-02T00:24:40;30.33;;;17.80;;
3068;SDS011;1545;51.728;8.796;2024-03-02T00:27:06;34.23;;;17.90;;
3068;SDS011;1545;51.728;8.796;2024-03-02T00:29:32;31.67;;;17.87;;
3068;SDS011;1545;51.728;8.796;2024-03-02T00:31:59;28.87;;;16.80;;
3068;SDS011;1545;51.728;8.796;2024-03-02T00:34:26;30.50;;;17.47;;
3068;SDS011;1545;51.728;8.796;2024-03-02T00:36:51;29.07;;;16.83;;
3068;SDS011;1545;51.728;8.796;2024-03-02T00:39:17;27.80;;;16.93;;
3068;SDS011;1545;51.728;8.796;2024-03-02T00:41:43;30.57;;;17.03;;
3068;SDS011;1545;51.728;8.796;2024-03-02T00:44:09;29.67;;;17.03;;
3068;SDS011;1545;51.728;8.796;2024-03-02T00:46:41;31.13;;;17.60;;
3068;SDS011;1545;51.728;8.796;2024-03-02T00:49:12;27.77;;;16.73;;
3068;SDS011;1545;51.728;8.796;2024-03-02T00:51:51;29.73;;;17.77;;
3068;SDS011;1545;51.728;8.796;2024-03-02T00:54:19;28.00;;;16.60;;
3068;SDS011;1545;51.728;8.796;2024-03-02T00:56:50;28.30;;;17.37;;
3068;SDS011;1545;51.728;8.796;2024-03-02T00:59:17;38.40;;;18.20;;
3068;SDS011;1545;51.728;8.796;2024-03-02T01:01:43;27.83;;;17.47;;
3068;SDS011;1545;51.728;8.796;2024-03-02T01:04:08;30.70;;;17.77;;
3068;SDS011;1545;51.728;8.796;2024-03-02T01:06:34;31.53;;;18.57;;
3068;SDS011;1545;51.728;8.796;2024-03-02T01:09:01;31.27;;;17.97;;
3068;SDS011;1545;51.728;8.796;2024-03-02T01:11:27;33.80;;;18.63;;
3068;SDS011;1545;51.728;8.796;2024-03-02T01:13:53;28.10;;;17.77;;
3068;SDS011;1545;51.728;8.796;2024-03-02T01:16:18;32.00;;;19.43;;
3068;SDS011;1545;51.728;8.796;2024-03-02T01:18:44;36.50;;;18.23;;
3068;SDS011;1545;51.728;8.796;2024-03-02T01:21:09;35.83;;;19.43;;
3068;SDS011;1545;51.728;8.796;2024-03-02T01:23:34;30.60;;;19.40;;
3068;SDS011;1545;51.728;8.796;2024-03-02T01:26:00;33.17;;;19.33;;
3068;SDS011;1545;51.728;8.796;2024-03-02T01:28:25;34.77;;;19.33;;
3068;SDS011;1545;51.728;8.796;2024-03-02T01:30:51;38.83;;;20.50;;
3068;SDS011;1545;51.728;8.796;2024-03-02T01:33:17;32.77;;;19.53;;
3068;SDS011;1545;51.728;8.796;2024-03-02T01:35:44;31.30;;;18.97;;
3068;SDS011;1545;51.728;8.796;2024-03-02T01:38:10;30.10;;;18.07;;
3068;SDS011;1545;51.728;8.796;2024-03-02T01:40:36;34.00;;;19.70;;
3068;SDS011;1545;51.728;8.796;2024-03-02T01:43:05;34.73;;;20.70;;
3068;SDS011;1545;51.728;8.796;2024-03-02T01:45:32;34.23;;;20.33;;
3068;SDS011;1545;51.728;8.796;2024-03-02T01:48:00;36.10;;;20.83;;
3068;SDS011;1545;51.728;8.796;2024-03-02T01:50:30;35.50;;;20.87;;
3068;SDS011;1545;51.728;8.796;2024-03-02T01:52:57;38.70;;;21.00;;
3068;SDS011;1545;51.728;8.796;2024-03-02T01:55:23;35.27;;;20.80;;
3068;SDS011;1545;51.728;8.796;2024-03-02T01:57:49;36.83;;;21.17;;
3068;SDS011;1545;51.728;8.796;2024-03-02T02:00:19;38.00;;;21.67;;
3068;SDS011;1545;51.728;8.796;2024-03-02T02:02:46;41.63;;;22.67;;
3068;SDS011;1545;51.728;8.796;2024-03-02T02:05:12;35.80;;;21.87;;
3068;SDS011;1545;51.728;8.796;2024-03-02T02:07:39;35.07;;;20.90;;
3068;SDS011;1545;51.728;8.796;2024-03-02T02:10:06;39.37;;;22.67;;
3068;SDS011;1545;51.728;8.796;2024-03-02T02:12:31;37.07;;;22.17;;
3068;SDS011;1545;51.728;8.796;2024-03-02T02:14:57;45.97;;;23.73;;
3068;SDS011;1545;51.728;8.796;2024-03-02T02:17:23;39.20;;;22.83;;
3068;SDS011;1545;51.728;8.796;2024-03-02T02:19:48;41.57;;;23.83;;
3068;SDS011;1545;51.728;8.796;2024-03-02T02:22:13;42.43;;;24.03;;
3068;SDS011;1545;51.728;8.796;2024-03-02T02:24:40;43.07;;;24.50;;
3068;SDS011;1545;51.728;8.796;2024-03-02T02:27:06;40.30;;;23.23;;
3068;SDS011;1545;51.728;8.796;2024-03-02T02:29:32;47.23;;;23.20;;
3068;SDS011;1545;51.728;8.796;2024-03-02T02:31:58;41.07;;;23.97;;
3068;SDS011;1545;51.728;8.796;2024-03-02T02:34:23;43.93;;;24.27;;
3068;SDS011;1545;51.728;8.796;2024-03-02T02:36:48;41.67;;;23.77;;
3068;SDS011;1545;51.728;8.796;2024-03-02T02:39:15;44.97;;;24.83;;
3068;SDS011;1545;51.728;8.796;2024-03-02T02:41:43;42.73;;;24.87;;
3068;SDS011;1545;51.728;8.796;2024-03-02T02:44:08;46.37;;;26.37;;
3068;SDS011;1545;51.728;8.796;2024-03-02T02:46:37;48.47;;;26.80;;
3068;SDS011;1545;51.728;8.796;2024-03-02T02:49:03;48.63;;;27.03;;
3068;SDS011;1545;51.728;8.796;2024-03-02T02:51:28;47.17;;;26.23;;
3068;SDS011;1545;51.728;8.796;2024-03-02T02:53:54;47.53;;;26.73;;
3068;SDS011;1545;51.728;8.796;2024-03-02T02:56:19;48.17;;;26.53;;
3068;SDS011;1545;51.728;8.796;2024-03-02T02:58:45;51.90;;;26.80;;
3068;SDS011;1545;51.728;8.796;2024-03-02T03:01:10;49.80;;;27.37;;
3068;SDS011;1545;51.728;8.796;2024-03-02T03:03:36;48.43;;;26.70;;
3068;SDS011;1545;51.728;8.796;2024-03-02T03:06:01;49.67;;;28.27;;
3068;SDS011;1545;51.728;8.796;2024-03-02T03:08:27;50.33;;;27.70;;
3068;SDS011;1545;51.728;8.796;2024-03-02T03:10:52;50.03;;;28.30;;
3068;SDS011;1545;51.728;8.796;2024-03-02T03:13:18;46.60;;;27.33;;
3068;SDS011;1545;51.728;8.796;2024-03-02T03:15:43;52.60;;;28.97;;
3068;SDS011;1545;51.728;8.796;2024-03-02T03:18:09;50.77;;;27.87;;
3068;SDS011;1545;51.728;8.796;2024-03-02T03:20:35;49.23;;;28.27;;
3068;SDS011;1545;51.728;8.796;2024-03-02T03:23:01;48.97;;;28.30;;
3068;SDS011;1545;51.728;8.796;2024-03-02T03:25:26;54.53;;;29.53;;
3068;SDS011;1545;51.728;8.796;2024-03-02T03:27:52;52.87;;;29.53;;
3068;SDS011;1545;51.728;8.796;2024-03-02T03:30:17;50.77;;;28.57;;
3068;SDS011;1545;51.728;8.796;2024-03-02T03:32:43;47.10;;;27.47;;
3068;SDS011;1545;51.728;8.796;2024-03-02T03:35:08;49.03;;;28.63;;
3068;SDS011;1545;51.728;8.796;2024-03-02T03:37:34;51.57;;;27.97;;
3068;SDS011;1545;51.728;8.796;2024-03-02T03:40:00;51.20;;;27.67;;
3068;SDS011;1545;51.728;8.796;2024-03-02T03:42:26;46.20;;;27.43;;
3068;SDS011;1545;51.728;8.796;2024-03-02T03:44:51;52.67;;;27.97;;
3068;SDS011;1545;51.728;8.796;2024-03-02T03:47:17;48.60;;;27.87;;
3068;SDS011;1545;51.728;8.796;2024-03-02T03:49:42;51.20;;;28.60;;
3068;SDS011;1545;51.728;8.796;2024-03-02T03:52:08;49.77;;;27.90;;
3068;SDS011;1545;51.728;8.796;2024-03-02T03:54:33;53.87;;;27.37;;
3068;SDS011;1545;51.728;8.796;2024-03-02T03:56:59;45.80;;;27.40;;
3068;SDS011;1545;51.728;8.796;2024-03-02T03:59:24;50.10;;;28.20;;
3068;SDS011;1545;51.728;8.796;2024-03-02T04:01:50;50.40;;;27.40;;
3068;SDS011;1545;51.728;8.796;2024-03-02T04:04:15;49.17;;;28.70;;
3068;SDS011;1545;51.728;8.796;2024-03-02T04:06:41;48.30;;;27.17;;
3068;SDS011;1545;51.728;8.796;2024-03-02T04:09:06;52.20;;;27.90;;
3068;SDS011;1545;51.728;8.796;2024-03-02T04:11:32;54.43;;;28.33;;
3068;SDS011;1545;51.728;8.796;2024-03-02T04:13:57;53.13;;;28.17;;
3068;SDS011;1545;51.728;8.796;2024-03-02T04:16:23;53.67;;;29.37;;
3068;SDS011;1545;51.728;8.796;2024-03-02T04:18:48;48.63;;;27.20;;
3068;SDS011;1545;51.728;8.796;2024-03-02T04:21:14;53.20;;;28.33;;
3068;SDS011;1545;51.728;8.796;2024-03-02T04:23:39;50.97;;;28.60;;
3068;SDS011;1545;51.728;8.796;2024-03-02T04:26:05;52.17;;;29.00;;
3068;SDS011;1545;51.728;8.796;2024-03-02T04:28:30;53.33;;;28.50;;
3068;SDS011;1545;51.728;8.796;2024-03-02T04:30:56;56.87;;;29.03;;
3068;SDS011;1545;51.728;8.796;2024-03-02T04:33:21;52.43;;;28.90;;
3068;SDS011;1545;51.728;8.796;2024-03-02T04:35:46;63.70;;;28.87;;
3068;SDS011;1545;51.728;8.796;2024-03-02T04:38:12;59.40;;;27.77;;
3068;SDS011;1545;51.728;8.796;2024-03-02T04:40:37;54.77;;;29.37;;
3068;SDS011;1545;51.728;8.796;2024-03-02T04:43:03;52.70;;;28.13;;
3068;SDS011;1545;51.728;8.796;2024-03-02T04:45:29;51.00;;;28.27;;
3068;SDS011;1545;51.728;8.796;2024-03-02T04:47:54;52.50;;;28.20;;
3068;SDS011;1545;51.728;8.796;2024-03-02T04:50:20;54.60;;;29.47;;
3068;SDS011;1545;51.728;8.796;2024-03-02T04:52:45;48.27;;;27.27;;
3068;SDS011;1545;51.728;8.796;2024-03-02T04:55:10;52.83;;;27.53;;
3068;SDS011;1545;51.728;8.796;2024-03-02T04:57:54;51.70;;;28.60;;
3068;SDS011;1545;51.728;8.796;2024-03-02T05:00:20;54.83;;;28.27;;
3068;SDS011;1545;51.728;8.796;2024-03-02T05:02:46;54.47;;;28.80;;
3068;SDS011;1545;51.728;8.796;2024-03-02T05:05:12;51.80;;;27.90;;
3068;SDS011;1545;51.728;8.796;2024-03-02T05:07:37;62.37;;;29.30;;
3068;SDS011;1545;51.728;8.796;2024-03-02T05:10:03;53.60;;;28.87;;
3068;SDS011;1545;51.728;8.796;2024-03-02T05:12:28;60.03;;;28.27;;
3068;SDS011;1545;51.728;8.796;2024-03-02T05:15:14;54.67;;;29.10;;
3068;SDS011;1545;51.728;8.796;2024-03-02T05:17:40;55.97;;;29.53;;
3068;SDS011;1545;51.728;8.796;2024-03-02T05:20:09;51.47;;;28.47;;
3068;SDS011;1545;51.728;8.796;2024-03-02T05:22:35;53.13;;;28.63;;
3068;SDS011;1545;51.728;8.796;2024-03-02T05:25:02;56.27;;;28.70;;
3068;SDS011;1545;51.728;8.796;2024-03-02T05:27:28;54.93;;;28.93;;
3068;SDS011;1545;51.728;8.796;2024-03-02T05:29:53;54.87;;;28.60;;
3068;SDS011;1545;51.728;8.796;2024-03-02T05:32:19;49.47;;;27.77;;
3068;SDS011;1545;51.728;8.796;2024-03-02T05:34:44;52.33;;;28.03;;
3068;SDS011;1545;51.728;8.796;2024-03-02T05:37:10;58.57;;;29.40;;
3068;SDS011;1545;51.728;8.796;2024-03-02T05:39:35;55.10;;;28.87;;
3068;SDS011;1545;51.728;8.796;2024-03-02T05:42:01;56.17;;;28.33;;
3068;SDS011;1545;51.728;8.796;2024-03-02T05:44:26;53.70;;;27.47;;
3068;SDS011;1545;51.728;8.796;2024-03-02T05:46:52;56.07;;;28.97;;
3068;SDS011;1545;51.728;8.796;2024-03-02T05:49:17;66.13;;;30.87;;
3068;SDS011;1545;51.728;8.796;2024-03-02T05:51:43;56.00;;;29.50;;
3068;SDS011;1545;51.728;8.796;2024-03-02T05:54:08;54.27;;;27.80;;
3068;SDS011;1545;51.728;8.796;2024-03-02T05:56:34;53.53;;;29.33;;
3068;SDS011;1545;51.728;8.796;2024-03-02T05:59:00;58.10;;;29.60;;
3068;SDS011;1545;51.728;8.796;2024-03-02T06:01:37;56.53;;;29.10;;
3068;SDS011;1545;51.728;8.796;2024-03-02T06:04:06;57.20;;;30.03;;
3068;SDS011;1545;51.728;8.796;2024-03-02T06:06:32;56.23;;;29.37;;
3068;SDS011;1545;51.728;8.796;2024-03-02T06:08:59;57.53;;;31.13;;
3068;SDS011;1545;51.728;8.796;2024-03-02T06:11:32;62.70;;;30.93;;
3068;SDS011;1545;51.728;8.796;2024-03-02T06:14:01;58.87;;;30.27;;
3068;SDS011;1545;51.728;8.796;2024-03-02T06:16:27;64.43;;;31.00;;
3068;SDS011;1545;51.728;8.796;2024-03-02T06:18:52;62.73;;;30.63;;
3068;SDS011;1545;51.728;8.796;2024-03-02T06:21:19;57.50;;;30.60;;
3068;SDS011;1545;51.728;8.796;2024-03-02T06:23:44;65.07;;;30.97;;
3068;SDS011;1545;51.728;8.796;2024-03-02T06:26:10;58.57;;;30.57;;
3068;SDS011;1545;51.728;8.796;2024-03-02T06:28:35;58.90;;;30.20;;
3068;SDS011;1545;51.728;8.796;2024-03-02T06:31:04;62.83;;;31.67;;
3068;SDS011;1545;51.728;8.796;2024-03-02T06:33:29;58.30;;;29.47;;
3068;SDS011;1545;51.728;8.796;2024-03-02T06:35:55;58.80;;;30.30;;
3068;SDS011;1545;51.728;8.796;2024-03-02T06:38:20;59.70;;;29.90;;
3068;SDS011;1545;51.728;8.796;2024-03-02T06:40:46;59.87;;;30.57;;
3068;SDS011;1545;51.728;8.796;2024-03-02T06:43:11;58.30;;;29.03;;
3068;SDS011;1545;51.728;8.796;2024-03-02T06:45:37;59.73;;;29.70;;
3068;SDS011;1545;51.728;8.796;2024-03-02T06:48:02;54.60;;;29.80;;
3068;SDS011;1545;51.728;8.796;2024-03-02T06:50:28;55.17;;;28.70;;
3068;SDS011;1545;51.728;8.796;2024-03-02T06:52:54;55.87;;;29.23;;
3068;SDS011;1545;51.728;8.796;2024-03-02T06:55:21;56.77;;;28.13;;
3068;SDS011;1545;51.728;8.796;2024-03-02T06:57:46;61.77;;;30.37;;
3068;SDS011;1545;51.728;8.796;2024-03-02T07:00:12;54.43;;;28.43;;
3068;SDS011;1545;51.728;8.796;2024-03-02T07:02:38;60.27;;;27.73;;
3068;SDS011;1545;51.728;8.796;2024-03-02T07:05:06;50.30;;;28.03;;
3068;SDS011;1545;51.728;8.796;2024-03-02T07:07:32;57.07;;;29.07;;
3068;SDS011;1545;51.728;8.796;2024-03-02T07:09:59;56.20;;;28.67;;
3068;SDS011;1545;51.728;8.796;2024-03-02T07:12:25;56.63;;;27.97;;
3068;SDS011;1545;51.728;8.796;2024-03-02T07:14:50;54.23;;;28.33;;
3068;SDS011;1545;51.728;8.796;2024-03-02T07:17:21;54.37;;;28.07;;
3068;SDS011;1545;51.728;8.796;2024-03-02T07:19:47;56.17;;;27.73;;
3068;SDS011;1545;51.728;8.796;2024-03-02T07:22:13;55.90;;;28.63;;
3068;SDS011;1545;51.728;8.796;2024-03-02T07:24:42;53.67;;;28.27;;
3068;SDS011;1545;51.728;8.796;2024-03-02T07:27:11;49.70;;;27.07;;
3068;SDS011;1545;51.728;8.796;2024-03-02T07:29:37;56.13;;;28.17;;
3068;SDS011;1545;51.728;8.796;2024-03-02T07:32:04;51.87;;;27.60;;
3068;SDS011;1545;51.728;8.796;2024-03-02T07:34:30;56.37;;;28.80;;
3068;SDS011;1545;51.728;8.796;2024-03-02T07:36:55;53.87;;;28.30;;
3068;SDS011;1545;51.728;8.796;2024-03-02T07:39:21;57.10;;;28.47;;
3068;SDS011;1545;51.728;8.796;2024-03-02T07:41:47;52.70;;;27.97;;
3068;SDS011;1545;51.728;8.796;2024-03-02T07:44:13;58.30;;;27.87;;
3068;SDS011;1545;51.728;8.796;2024-03-02T07:46:40;52.03;;;27.50;;
3068;SDS011;1545;51.728;8.796;2024-03-02T07:49:06;54.60;;;28.50;;
3068;SDS011;1545;51.728;8.796;2024-03-02T07:51:32;52.97;;;27.70;;
3068;SDS011;1545;51.728;8.796;2024-03-02T07:53:57;52.80;;;27.53;;
3068;SDS011;1545;51.728;8.796;2024-03-02T07:56:22;50.47;;;26.17;;
3068;SDS011;1545;51.728;8.796;2024-03-02T07:58:48;55.93;;;26.50;;
3068;SDS011;1545;51.728;8.796;2024-03-02T08:01:14;50.53;;;27.10;;
3068;SDS011;1545;51.728;8.796;2024-03-02T08:03:40;52.40;;;26.47;;
3068;SDS011;1545;51.728;8.796;2024-03-02T08:06:05;52.53;;;26.93;;
3068;SDS011;1545;51.728;8.796;2024-03-02T08:08:31;49.57;;;26.00;;
3068;SDS011;1545;51.728;8.796;2024-03-02T08:10:57;56.03;;;26.80;;
3068;SDS011;1545;51.728;8.796;2024-03-02T08:13:22;49.33;;;27.00;;
3068;SDS011;1545;51.728;8.796;2024-03-02T08:15:48;51.77;;;26.53;;
3068;SDS011;1545;51.728;8.796;2024-03-02T08:18:13;53.87;;;26.73;;
3068;SDS011;1545;51.728;8.796;2024-03-02T08:20:39;48.77;;;26.47;;
3068;SDS011;1545;51.728;8.796;2024-03-02T08:23:05;54.00;;;28.07;;
3068;SDS011;1545;51.728;8.796;2024-03-02T08:25:31;47.87;;;25.80;;
3068;SDS011;1545;51.728;8.796;2024-03-02T08:27:57;51.07;;;26.67;;
3068;SDS011;1545;51.728;8.796;2024-03-02T08:30:23;55.40;;;27.47;;
3068;SDS011;1545;51.728;8.796;2024-03-02T08:32:48;46.20;;;24.70;;
3068;SDS011;1545;51.728;8.796;2024-03-02T08:35:14;51.37;;;27.03;;
3068;SDS011;1545;51.728;8.796;2024-03-02T08:37:40;47.77;;;24.90;;
3068;SDS011;1545;51.728;8.796;2024-03-02T08:40:07;53.37;;;25.80;;
3068;SDS011;1545;51.728;8.796;2024-03-02T08:42:33;47.17;;;24.57;;
3068;SDS011;1545;51.728;8.796;2024-03-02T08:44:59;50.23;;;24.27;;
3068;SDS011;1545;51.728;8.796;2024-03-02T08:47:25;44.60;;;23.73;;
3068;SDS011;1545;51.728;8.796;2024-03-02T08:49:52;42.00;;;23.40;;
3068;SDS011;1545;51.728;8.796;2024-03-02T08:52:17;43.97;;;22.77;;
3068;SDS011;1545;51.728;8.796;2024-03-02T08:54:43;41.33;;;21.90;;
3068;SDS011;1545;51.728;8.796;2024-03-02T08:57:08;46.70;;;23.10;;
3068;SDS011;1545;51.728;8.796;2024-03-02T08:59:33;43.03;;;22.53;;
3068;SDS011;1545;51.728;8.796;2024-03-02T09:01:59;42.97;;;22.57;;
3068;SDS011;1545;51.728;8.796;2024-03-02T09:04:24;40.37;;;21.80;;
3068;SDS011;1545;51.728;8.796;2024-03-02T09:06:50;39.07;;;22.07;;
3068;SDS011;1545;51.728;8.796;2024-03-02T09:09:16;38.47;;;20.83;;
3068;SDS011;1545;51.728;8.796;2024-03-02T09:11:41;36.33;;;20.20;;
3068;SDS011;1545;51.728;8.796;2024-03-02T09:14:06;38.80;;;20.00;;
3068;SDS011;1545;51.728;8.796;2024-03-02T09:16:32;35.77;;;19.17;;
3068;SDS011;1545;51.728;8.796;2024-03-02T09:18:58;40.97;;;20.20;;
3068;SDS011;1545;51.728;8.796;2024-03-02T09:21:23;38.63;;;20.17;;
3068;SDS011;1545;51.728;8.796;2024-03-02T09:23:50;36.10;;;20.33;;
3068;SDS011;1545;51.728;8.796;2024-03-02T09:26:15;35.83;;;20.07;;
3068;SDS011;1545;51.728;8.796;2024-03-02T09:28:44;38.53;;;19.10;;
3068;SDS011;1545;51.728;8.796;2024-03-02T09:31:10;36.60;;;20.00;;
3068;SDS011;1545;51.728;8.796;2024-03-02T09:33:36;35.93;;;20.83;;
3068;SDS011;1545;51.728;8.796;2024-03-02T09:36:04;36.57;;;19.30;;
3068;SDS011;1545;51.728;8.796;2024-03-02T09:38:31;34.40;;;18.77;;
3068;SDS011;1545;51.728;8.796;2024-03-02T09:40:58;37.03;;;19.90;;
3068;SDS011;1545;51.728;8.796;2024-03-02T09:43:24;32.63;;;18.20;;
3068;SDS011;1545;51.728;8.796;2024-03-02T09:45:50;33.10;;;18.47;;
3068;SDS011;1545;51.728;8.796;2024-03-02T09:48:16;33.40;;;18.20;;
3068;SDS011;1545;51.728;8.796;2024-03-02T09:50:43;33.20;;;17.13;;
3068;SDS011;1545;51.728;8.796;2024-03-02T09:53:09;28.50;;;16.67;;
3068;SDS011;1545;51.728;8.796;2024-03-02T09:55:36;29.77;;;17.10;;
3068;SDS011;1545;51.728;8.796;2024-03-02T09:58:02;30.13;;;16.40;;
3068;SDS011;1545;51.728;8.796;2024-03-02T10:00:28;41.00;;;16.33;;
3068;SDS011;1545;51.728;8.796;2024-03-02T10:02:53;31.53;;;16.33;;
3068;SDS011;1545;51.728;8.796;2024-03-02T10:05:26;28.03;;;16.23;;
3068;SDS011;1545;51.728;8.796;2024-03-02T10:08:01;37.03;;;16.30;;
3068;SDS011;1545;51.728;8.796;2024-03-02T10:10:34;29.47;;;17.17;;
3068;SDS011;1545;51.728;8.796;2024-03-02T10:13:08;26.17;;;16.03;;
3068;SDS011;1545;51.728;8.796;2024-03-02T10:15:34;25.63;;;14.93;;
3068;SDS011;1545;51.728;8.796;2024-03-02T10:18:02;31.20;;;16.67;;
3068;SDS011;1545;51.728;8.796;2024-03-02T10:20:28;26.37;;;15.10;;
3068;SDS011;1545;51.728;8.796;2024-03-02T10:22:54;26.63;;;15.03;;
3068;SDS011;1545;51.728;8.796;2024-03-02T10:25:38;26.67;;;15.27;;
3068;SDS011;1545;51.728;8.796;2024-03-02T10:28:05;27.60;;;15.00;;
3068;SDS011;1545;51.728;8.796;2024-03-02T10:30:31;23.77;;;14.80;;
3068;SDS011;1545;51.728;8.796;2024-03-02T10:32:57;25.33;;;14.77;;
3068;SDS011;1545;51.728;8.796;2024-03-02T10:35:22;22.43;;;13.67;;
3068;SDS011;1545;51.728;8.796;2024-03-02T10:37:49;30.43;;;16.00;;
3068;SDS011;1545;51.728;8.796;2024-03-02T10:40:15;23.87;;;13.97;;
3068;SDS011;1545;51.728;8.796;2024-03-02T10:42:41;23.73;;;13.70;;
3068;SDS011;1545;51.728;8.796;2024-03-02T10:45:07;24.33;;;14.00;;
3068;SDS011;1545;51.728;8.796;2024-03-02T10:47:36;26.73;;;13.63;;
3068;SDS011;1545;51.728;8.796;2024-03-02T10:50:03;22.70;;;12.97;;
3068;SDS011;1545;51.728;8.796;2024-03-02T10:52:33;20.70;;;12.80;;
3068;SDS011;1545;51.728;8.796;2024-03-02T10:54:59;21.33;;;12.87;;
3068;SDS011;1545;51.728;8.796;2024-03-02T10:57:25;20.20;;;12.30;;
3068;SDS011;1545;51.728;8.796;2024-03-02T10:59:52;20.20;;;12.50;;
3068;SDS011;1545;51.728;8.796;2024-03-02T11:02:21;21.33;;;12.40;;
3068;SDS011;1545;51.728;8.796;2024-03-02T11:04:49;21.80;;;12.70;;
3068;SDS011;1545;51.728;8.796;2024-03-02T11:07:15;21.63;;;12.10;;
3068;SDS011;1545;51.728;8.796;2024-03-02T11:09:50;20.40;;;12.50;;
3068;SDS011;1545;51.728;8.796;2024-03-02T11:12:35;24.03;;;13.33;;
3068;SDS011;1545;51.728;8.796;2024-03-02T11:15:09;20.17;;;12.40;;
3068;SDS011;1545;51.728;8.796;2024-03-02T11:17:36;19.07;;;11.90;;
3068;SDS011;1545;51.728;8.796;2024-03-02T11:20:05;21.80;;;12.73;;
3068;SDS011;1545;51.728;8.796;2024-03-02T11:22:33;21.03;;;12.00;;
3068;SDS011;1545;51.728;8.796;2024-03-02T11:25:00;15.77;;;10.60;;
3068;SDS011;1545;51.728;8.796;2024-03-02T11:30:16;20.90;;;10.90;;
3068;SDS011;1545;51.728;8.796;2024-03-02T11:32:58;18.70;;;11.30;;
3068;SDS011;1545;51.728;8.796;2024-03-02T11:35:37;18.50;;;11.07;;
3068;SDS011;1545;51.728;8.796;2024-03-02T11:38:03;20.63;;;11.57;;
3068;SDS011;1545;51.728;8.796;2024-03-02T11:40:29;17.67;;;11.10;;
3068;SDS011;1545;51.728;8.796;2024-03-02T11:42:56;19.00;;;11.13;;
3068;SDS011;1545;51.728;8.796;2024-03-02T11:45:24;21.60;;;10.80;;
3068;SDS011;1545;51.728;8.796;2024-03-02T11:47:51;17.27;;;10.67;;
3068;SDS011;1545;51.728;8.796;2024-03-02T11:50:31;20.13;;;11.23;;
3068;SDS011;1545;51.728;8.796;2024-03-02T11:53:00;17.60;;;10.83;;
3068;SDS011;1545;51.728;8.796;2024-03-02T11:55:26;17.27;;;10.20;;
3068;SDS011;1545;51.728;8.796;2024-03-02T11:57:52;17.00;;;9.53;;
3068;SDS011;1545;51.728;8.796;2024-03-02T12:00:18;16.07;;;10.20;;
3068;SDS011;1545;51.728;8.796;2024-03-02T12:02:45;15.83;;;10.10;;
3068;SDS011;1545;51.728;8.796;2024-03-02T12:05:14;16.57;;;9.47;;
3068;SDS011;1545;51.728;8.796;2024-03-02T12:07:41;17.63;;;9.77;;
3068;SDS011;1545;51.728;8.796;2024-03-02T12:10:08;14.47;;;9.63;;
3068;SDS011;1545;51.728;8.796;2024-03-02T12:12:33;16.67;;;9.40;;
3068;SDS011;1545;51.728;8.796;2024-03-02T12:14:59;13.73;;;9.03;;
3068;SDS011;1545;51.728;8.796;2024-03-02T12:17:25;14.40;;;8.47;;
3068;SDS011;1545;51.728;8.796;2024-03-02T12:19:51;14.70;;;8.83;;
3068;SDS011;1545;51.728;8.796;2024-03-02T12:22:17;15.50;;;8.60;;
3068;SDS011;1545;51.728;8.796;2024-03-02T12:24:43;12.43;;;8.37;;
3068;SDS011;1545;51.728;8.796;2024-03-02T12:27:13;13.87;;;7.90;;
3068;SDS011;1545;51.728;8.796;2024-03-02T12:29:40;13.47;;;8.20;;
3068;SDS011;1545;51.728;8.796;2024-03-02T12:32:06;10.77;;;7.80;;
3068;SDS011;1545;51.728;8.796;2024-03-02T12:34:31;14.87;;;8.60;;
3068;SDS011;1545;51.728;8.796;2024-03-02T12:36:57;11.87;;;7.50;;
3068;SDS011;1545;51.728;8.796;2024-03-02T12:39:23;11.17;;;7.53;;
3068;SDS011;1545;51.728;8.796;2024-03-02T12:41:49;12.17;;;7.33;;
3068;SDS011;1545;51.728;8.796;2024-03-02T12:44:15;10.30;;;7.33;;
3068;SDS011;1545;51.728;8.796;2024-03-02T12:46:44;11.23;;;7.03;;
3068;SDS011;1545;51.728;8.796;2024-03-02T12:49:14;11.07;;;6.47;;
3068;SDS011;1545;51.728;8.796;2024-03-02T12:51:43;10.47;;;6.40;;
3068;SDS011;1545;51.728;8.796;2024-03-02T12:54:11;10.87;;;6.47;;
3068;SDS011;1545;51.728;8.796;2024-03-02T12:56:37;8.87;;;6.17;;
3068;SDS011;1545;51.728;8.796;2024-03-02T12:59:06;10.37;;;6.67;;
3068;SDS011;1545;51.728;8.796;2024-03-02T13:01:31;9.47;;;6.10;;
3068;SDS011;1545;51.728;8.796;2024-03-02T13:03:57;11.87;;;6.40;;
3068;SDS011;1545;51.728;8.796;2024-03-02T13:06:24;8.67;;;5.90;;
3068;SDS011;1545;51.728;8.796;2024-03-02T13:08:53;10.37;;;5.60;;
3068;SDS011;1545;51.728;8.796;2024-03-02T13:11:18;8.57;;;6.10;;
3068;SDS011;1545;51.728;8.796;2024-03-02T13:13:45;10.27;;;6.40;;
3068;SDS011;1545;51.728;8.796;2024-03-02T13:16:12;8.60;;;5.97;;
3068;SDS011;1545;51.728;8.796;2024-03-02T13:18:41;10.03;;;5.57;;
3068;SDS011;1545;51.728;8.796;2024-03-02T13:21:07;7.93;;;5.33;;
3068;SDS011;1545;51.728;8.796;2024-03-02T13:23:33;8.80;;;5.37;;
3068;SDS011;1545;51.728;8.796;2024-03-02T13:25:58;11.60;;;5.60;;
3068;SDS011;1545;51.728;8.796;2024-03-02T13:28:24;8.73;;;5.53;;
3068;SDS011;1545;51.728;8.796;2024-03-02T13:30:50;9.50;;;5.70;;
3068;SDS011;1545;51.728;8.796;2024-03-02T13:33:16;8.47;;;5.80;;
3068;SDS011;1545;51.728;8.796;2024-03-02T13:35:47;7.57;;;4.93;;
3068;SDS011;1545;51.728;8.796;2024-03-02T13:38:13;6.63;;;4.77;;
3068;SDS011;1545;51.728;8.796;2024-03-02T13:40:38;7.83;;;5.23;;
3068;SDS011;1545;51.728;8.796;2024-03-02T13:43:04;8.13;;;5.30;;
3068;SDS011;1545;51.728;8.796;2024-03-02T13:45:29;6.80;;;4.50;;
3068;SDS011;1545;51.728;8.796;2024-03-02T13:47:55;11.20;;;5.77;;
3068;SDS011;1545;51.728;8.796;2024-03-02T13:50:20;7.77;;;5.03;;
3068;SDS011;1545;51.728;8.796;2024-03-02T13:52:46;8.77;;;5.13;;
3068;SDS011;1545;51.728;8.796;2024-03-02T13:55:11;9.10;;;5.70;;
3068;SDS011;1545;51.728;8.796;2024-03-02T13:57:37;9.87;;;5.63;;
3068;SDS011;1545;51.728;8.796;2024-03-02T14:00:03;8.37;;;5.30;;
3068;SDS011;1545;51.728;8.796;2024-03-02T14:02:35;7.80;;;4.67;;
3068;SDS011;1545;51.728;8.796;2024-03-02T14:05:00;7.10;;;4.53;;
3068;SDS011;1545;51.728;8.796;2024-03-02T14:07:26;6.90;;;4.70;;
3068;SDS011;1545;51.728;8.796;2024-03-02T14:09:51;7.13;;;4.63;;
3068;SDS011;1545;51.728;8.796;2024-03-02T14:12:17;5.93;;;4.40;;
3068;SDS011;1545;51.728;8.796;2024-03-02T14:14:42;7.10;;;4.53;;
3068;SDS011;1545;51.728;8.796;2024-03-02T14:17:08;4.43;;;3.50;;
3068;SDS011;1545;51.728;8.796;2024-03-02T14:19:39;7.20;;;3.93;;
3068;SDS011;1545;51.728;8.796;2024-03-02T14:22:04;5.23;;;3.60;;
3068;SDS011;1545;51.728;8.796;2024-03-02T14:24:30;6.27;;;3.93;;
3068;SDS011;1545;51.728;8.796;2024-03-02T14:26:55;7.10;;;3.60;;
3068;SDS011;1545;51.728;8.796;2024-03-02T14:29:26;6.13;;;4.00;;
3068;SDS011;1545;51.728;8.796;2024-03-02T14:31:52;8.13;;;4.80;;
3068;SDS011;1545;51.728;8.796;2024-03-02T14:34:17;10.40;;;5.93;;
3068;SDS011;1545;51.728;8.796;2024-03-02T14:36:43;11.93;;;7.60;;
3068;SDS011;1545;51.728;8.796;2024-03-02T14:39:09;11.77;;;7.40;;
3068;SDS011;1545;51.728;8.796;2024-03-02T14:41:35;11.27;;;7.07;;
3068;SDS011;1545;51.728;8.796;2024-03-02T14:44:01;12.50;;;7.53;;
3068;SDS011;1545;51.728;8.796;2024-03-02T14:46:27;15.17;;;7.23;;
3068;SDS011;1545;51.728;8.796;2024-03-02T14:48:53;11.60;;;6.97;;